createdAt,value
2017-11-17T00:02:26.221Z,0.60
2017-11-17T00:04:53.908Z,0.50
2017-11-17T00:07:21.639Z,0.60
2017-11-17T00:09:49.327Z,0.70
2017-11-17T00:12:17.035Z,0.60
2017-11-17T00:14:44.900Z,0.60
2017-11-17T00:17:13.023Z,0.50
2017-11-17T00:19:40.768Z,0.60
2017-11-17T00:22:08.644Z,0.50
2017-11-17T00:24:36.401Z,0.60
2017-11-17T00:27:04.150Z,0.50
2017-11-17T00:29:31.847Z,0.60
2017-11-17T00:31:59.568Z,0.60
2017-11-17T00:34:27.271Z,0.60
2017-11-17T00:36:54.961Z,0.60
2017-11-17T00:39:23.410Z,0.60
2017-11-17T00:41:51.096Z,0.60
2017-11-17T00:44:18.893Z,0.60
2017-11-17T00:46:46.569Z,0.60
2017-11-17T00:49:14.294Z,0.70
2017-11-17T00:51:42.017Z,0.70
2017-11-17T00:54:09.777Z,0.70
2017-11-17T00:56:37.599Z,0.60
2017-11-17T00:59:05.326Z,0.50
2017-11-17T01:01:33.329Z,0.50
2017-11-17T01:04:01.880Z,0.50
2017-11-17T01:06:29.697Z,0.50
2017-11-17T01:08:58.310Z,0.50
2017-11-17T01:11:26.135Z,0.50
2017-11-17T01:13:54.175Z,0.50
2017-11-17T01:16:21.915Z,0.40
2017-11-17T01:18:49.857Z,0.50
2017-11-17T01:21:17.752Z,0.50
2017-11-17T01:23:45.477Z,0.40
2017-11-17T01:26:13.284Z,0.40
2017-11-17T01:28:41.065Z,0.40
2017-11-17T01:31:08.906Z,0.50
2017-11-17T01:33:37.361Z,0.70
2017-11-17T01:36:05.038Z,0.60
2017-11-17T01:38:32.814Z,0.70
2017-11-17T01:41:01.224Z,0.70
2017-11-17T01:43:29.726Z,0.70
2017-11-17T01:45:57.468Z,0.60
2017-11-17T01:48:25.910Z,0.70
2017-11-17T01:50:53.561Z,0.70
2017-11-17T01:53:21.242Z,0.60
2017-11-17T01:55:49.172Z,0.60
2017-11-17T01:58:16.992Z,0.60
2017-11-17T02:00:44.800Z,0.70
2017-11-17T02:03:12.524Z,0.70
2017-11-17T02:05:41.012Z,0.70
2017-11-17T02:08:09.597Z,0.70
2017-11-17T02:10:37.348Z,0.70
2017-11-17T02:13:05.037Z,0.70
2017-11-17T02:15:32.759Z,0.70
2017-11-17T02:18:00.952Z,0.70
2017-11-17T02:20:28.701Z,0.60
2017-11-17T02:22:56.327Z,0.70
2017-11-17T02:25:24.039Z,0.70
2017-11-17T02:27:51.701Z,0.80
2017-11-17T02:30:20.165Z,0.80
2017-11-17T02:32:47.851Z,0.80
2017-11-17T02:35:16.286Z,0.90
2017-11-17T02:37:44.000Z,0.90
2017-11-17T02:40:12.421Z,1.00
2017-11-17T02:42:40.121Z,1.00
2017-11-17T02:45:08.820Z,0.90
2017-11-17T02:47:36.582Z,0.80
2017-11-17T02:50:04.287Z,0.90
2017-11-17T02:52:32.068Z,0.90
2017-11-17T02:54:59.761Z,0.80
2017-11-17T02:57:28.414Z,0.90
2017-11-17T02:59:56.848Z,0.70
2017-11-17T03:02:24.530Z,0.70
2017-11-17T03:04:52.273Z,0.70
2017-11-17T03:07:19.935Z,0.70
2017-11-17T03:09:47.617Z,0.80
2017-11-17T03:12:15.338Z,0.80
2017-11-17T03:14:42.987Z,0.80
2017-11-17T03:17:10.586Z,0.80
2017-11-17T03:19:39.246Z,0.80
2017-11-17T03:22:07.643Z,0.70
2017-11-17T03:24:35.337Z,0.70
2017-11-17T03:27:03.044Z,0.70
2017-11-17T03:29:30.715Z,0.70
2017-11-17T03:31:58.372Z,0.70
2017-11-17T03:34:26.050Z,0.80
2017-11-17T03:36:53.690Z,0.80
2017-11-17T03:39:21.305Z,0.80
2017-11-17T03:41:49.734Z,0.90
2017-11-17T03:44:17.406Z,0.90
2017-11-17T03:46:45.063Z,0.90
2017-11-17T03:49:12.719Z,0.90
2017-11-17T03:51:40.344Z,1.00
2017-11-17T03:54:08.022Z,1.00
2017-11-17T03:56:36.517Z,0.90
2017-11-17T03:59:04.193Z,0.80
2017-11-17T04:01:31.841Z,0.90
2017-11-17T04:04:00.338Z,0.80
2017-11-17T04:06:28.771Z,0.70
2017-11-17T04:08:56.466Z,0.70
2017-11-17T04:11:24.095Z,0.60
2017-11-17T04:13:51.785Z,0.70
2017-11-17T04:16:19.461Z,0.70
2017-11-17T04:18:47.113Z,0.80
2017-11-17T04:21:14.762Z,0.80
2017-11-17T04:23:42.433Z,0.80
2017-11-17T04:26:10.126Z,0.80
2017-11-17T04:28:38.597Z,0.60
2017-11-17T04:31:06.266Z,0.60
2017-11-17T04:33:34.970Z,0.60
2017-11-17T04:36:02.919Z,0.60
2017-11-17T04:38:32.485Z,0.50
2017-11-17T04:41:00.990Z,0.50
2017-11-17T04:43:28.894Z,0.40
2017-11-17T04:45:56.695Z,0.50
2017-11-17T04:48:24.542Z,0.50
2017-11-17T04:50:53.610Z,0.50
2017-11-17T04:53:21.345Z,0.50
2017-11-17T04:55:50.126Z,0.40
2017-11-17T04:58:18.804Z,0.30
2017-11-17T05:00:56.196Z,0.30
2017-11-17T05:03:24.043Z,0.40
2017-11-17T05:05:52.934Z,0.50
2017-11-17T05:08:22.983Z,0.50
2017-11-17T05:10:51.054Z,0.50
2017-11-17T05:13:21.407Z,0.50
2017-11-17T05:15:52.178Z,0.50
2017-11-17T05:18:28.361Z,0.60
2017-11-17T05:21:04.930Z,0.70
2017-11-17T05:23:35.504Z,0.70
2017-11-17T05:26:14.125Z,0.70
2017-11-17T05:31:31.351Z,0.60
2017-11-17T05:34:11.704Z,0.60
2017-11-17T05:36:40.732Z,0.60
2017-11-17T05:39:17.914Z,0.70
2017-11-17T05:42:17.642Z,0.80
2017-11-17T05:44:59.795Z,0.70
2017-11-17T05:47:28.928Z,0.70
2017-11-17T05:49:56.605Z,0.70
2017-11-17T05:52:27.066Z,0.80
2017-11-17T05:54:55.566Z,0.90
2017-11-17T05:57:24.847Z,0.80
2017-11-17T05:59:53.535Z,0.80
2017-11-17T06:02:29.183Z,0.80
2017-11-17T06:05:02.915Z,0.80
2017-11-17T06:07:46.492Z,0.90
2017-11-17T06:10:22.442Z,0.90
2017-11-17T06:12:58.076Z,0.90
2017-11-17T06:15:26.443Z,0.90
2017-11-17T06:17:54.839Z,0.90
2017-11-17T06:20:23.249Z,0.90
2017-11-17T06:22:50.968Z,0.90
2017-11-17T06:25:35.265Z,0.80
2017-11-17T06:28:03.990Z,0.90
2017-11-17T06:30:32.534Z,1.00
2017-11-17T06:33:00.221Z,1.00
2017-11-17T06:35:27.859Z,1.00
2017-11-17T06:37:57.488Z,0.90
2017-11-17T06:40:45.877Z,1.00
2017-11-17T06:46:16.928Z,1.20
2017-11-17T06:48:46.259Z,1.00
2017-11-17T06:51:16.788Z,1.00
2017-11-17T06:53:44.698Z,1.00
2017-11-17T06:56:13.260Z,1.10
2017-11-17T06:58:44.870Z,1.10
2017-11-17T07:01:13.037Z,1.20
2017-11-17T07:03:41.735Z,1.20
2017-11-17T07:06:14.831Z,1.20
2017-11-17T07:08:43.271Z,1.30
2017-11-17T09:47:32.134Z,4.20
2017-11-17T09:50:17.236Z,4.40
2017-11-17T09:52:50.035Z,4.90
2017-11-17T09:55:18.110Z,4.80
2017-11-17T09:57:45.991Z,5.20
2017-11-17T10:00:14.554Z,5.60
2017-11-17T10:02:42.462Z,5.60
2017-11-17T10:05:12.033Z,5.60
2017-11-17T10:07:39.860Z,5.70
2017-11-17T10:10:08.025Z,5.80
2017-11-17T10:12:35.936Z,6.10
2017-11-17T10:15:03.858Z,6.40
2017-11-17T10:17:31.882Z,6.80
2017-11-17T10:19:59.765Z,6.50
2017-11-17T10:22:27.858Z,6.60
2017-11-17T10:24:56.475Z,6.90
2017-11-17T10:27:27.831Z,6.90
2017-11-17T10:29:57.313Z,6.90
2017-11-17T10:32:26.861Z,6.90
2017-11-17T10:35:02.139Z,6.90
2017-11-17T10:37:34.300Z,6.70
2017-11-17T10:40:05.536Z,6.80
2017-11-17T10:42:46.378Z,7.20
2017-11-17T10:45:14.434Z,7.50
2017-11-17T10:47:42.796Z,7.80
2017-11-17T10:50:12.713Z,8.10
2017-11-17T10:52:40.801Z,7.90
2017-11-17T10:55:09.088Z,7.90
2017-11-17T10:57:37.451Z,7.70
2017-11-17T11:00:06.519Z,7.80
2017-11-17T11:02:34.621Z,7.80
2017-11-17T11:05:02.769Z,7.80
2017-11-17T11:07:33.381Z,7.90
2017-11-17T11:10:07.252Z,7.90
2017-11-17T11:12:35.962Z,7.90
2017-11-17T11:15:04.409Z,8.00
2017-11-17T11:17:33.102Z,8.20
2017-11-17T11:20:00.913Z,8.70
2017-11-17T11:22:28.546Z,8.20
2017-11-17T11:24:58.073Z,7.70
2017-11-17T11:27:27.670Z,7.50
2017-11-17T11:29:55.311Z,7.20
2017-11-17T11:32:23.000Z,7.00
2017-11-17T11:34:50.687Z,6.60
2017-11-17T11:37:18.478Z,6.80
2017-11-17T11:39:47.539Z,6.70
2017-11-17T11:42:15.402Z,6.70
2017-11-17T11:44:44.005Z,6.60
2017-11-17T11:47:11.705Z,6.30
2017-11-17T11:49:40.144Z,6.30
2017-11-17T11:52:07.874Z,6.20
2017-11-17T11:54:36.544Z,6.30
2017-11-17T11:57:05.028Z,6.10
2017-11-17T11:59:34.179Z,5.90
2017-11-17T12:02:01.866Z,5.90
2017-11-17T12:04:29.479Z,5.70
2017-11-17T12:06:57.193Z,5.70
2017-11-17T12:09:24.856Z,5.60
2017-11-17T12:11:52.565Z,5.70
2017-11-17T12:14:21.048Z,5.70
2017-11-17T12:16:48.692Z,5.70
2017-11-17T12:19:16.310Z,5.60
2017-11-17T12:21:44.117Z,5.60
2017-11-17T12:24:11.887Z,5.40
2017-11-17T12:26:39.605Z,5.40
2017-11-17T12:29:07.620Z,5.20
2017-11-17T12:31:35.331Z,5.10
2017-11-17T12:34:03.792Z,5.10
2017-11-17T12:36:31.452Z,5.10
2017-11-17T12:38:59.089Z,5.00
2017-11-17T12:41:26.751Z,5.10
2017-11-17T12:43:54.453Z,5.30
2017-11-17T12:46:22.999Z,5.40
2017-11-17T12:48:50.639Z,5.40
2017-11-17T12:51:19.158Z,5.30
2017-11-17T12:53:46.858Z,5.30
2017-11-17T12:56:14.555Z,5.20
2017-11-17T12:58:43.300Z,5.20
2017-11-17T13:01:11.072Z,5.20
2017-11-17T13:03:38.720Z,5.30
2017-11-17T13:06:08.515Z,5.30
2017-11-17T13:08:36.349Z,5.20
2017-11-17T13:11:04.004Z,5.30
2017-11-17T13:13:31.646Z,5.40
2017-11-17T13:15:59.732Z,5.40
2017-11-17T13:18:27.378Z,5.50
2017-11-17T13:20:55.037Z,5.60
2017-11-17T13:23:22.715Z,5.70
2017-11-17T13:25:50.412Z,5.60
2017-11-17T13:28:18.078Z,5.50
2017-11-17T13:30:45.691Z,5.40
2017-11-17T13:33:13.365Z,5.40
2017-11-17T13:35:41.034Z,5.40
2017-11-17T13:38:08.726Z,5.30
2017-11-17T13:40:36.368Z,5.10
2017-11-17T13:43:04.065Z,5.20
2017-11-17T13:45:31.723Z,5.30
2017-11-17T13:47:59.415Z,5.40
2017-11-17T13:50:27.084Z,5.40
2017-11-17T13:52:54.726Z,5.40
2017-11-17T13:55:22.431Z,5.30
2017-11-17T13:57:50.834Z,5.30
2017-11-17T14:00:19.337Z,5.40
2017-11-17T14:02:46.988Z,5.30
2017-11-17T14:05:15.411Z,5.20
2017-11-17T14:07:43.135Z,5.20
2017-11-17T14:10:11.802Z,5.50
2017-11-17T14:12:40.617Z,5.50
2017-11-17T14:15:09.291Z,5.70
2017-11-17T14:17:37.889Z,6.00
2017-11-17T14:20:07.007Z,6.00
2017-11-17T14:22:34.957Z,6.00
2017-11-17T14:25:03.651Z,6.10
2017-11-17T14:27:32.249Z,6.00
2017-11-17T14:30:00.202Z,6.00
2017-11-17T14:32:28.618Z,5.90
2017-11-17T14:34:56.292Z,5.70
2017-11-17T14:37:24.944Z,5.50
2017-11-17T14:39:53.566Z,5.40
2017-11-17T14:42:21.430Z,5.40
2017-11-17T14:44:49.380Z,5.20
2017-11-17T14:47:18.334Z,5.00
2017-11-17T14:49:46.172Z,4.90
2017-11-17T14:52:14.670Z,4.70
2017-11-17T14:54:42.397Z,4.70
2017-11-17T14:57:10.145Z,4.70
2017-11-17T14:59:38.016Z,4.70
2017-11-17T15:02:05.713Z,4.50
2017-11-17T15:04:33.402Z,4.40
2017-11-17T15:07:01.118Z,4.50
2017-11-17T15:09:29.695Z,4.40
2017-11-17T15:11:57.401Z,4.40
2017-11-17T15:14:28.636Z,4.50
2017-11-17T15:16:56.338Z,4.50
2017-11-17T15:19:24.058Z,4.40
2017-11-17T15:21:51.721Z,4.40
2017-11-17T15:24:19.421Z,4.40
2017-11-17T15:26:47.096Z,4.40
2017-11-17T15:29:14.780Z,4.40
2017-11-17T15:31:42.427Z,4.30
2017-11-17T15:34:10.145Z,4.20
2017-11-17T15:36:37.843Z,4.20
2017-11-17T15:39:05.566Z,4.10
2017-11-17T15:41:33.181Z,4.00
2017-11-17T15:44:00.837Z,3.90
2017-11-17T15:46:28.582Z,3.80
2017-11-17T15:48:56.366Z,3.80
2017-11-17T15:51:24.429Z,3.80
2017-11-17T15:53:53.263Z,3.80
2017-11-17T15:56:21.772Z,3.80
2017-11-17T15:58:49.515Z,3.70
2017-11-17T16:01:17.246Z,3.70
2017-11-17T16:03:44.967Z,3.60
2017-11-17T16:06:15.024Z,3.70
2017-11-17T16:08:44.043Z,3.60
2017-11-17T16:11:12.033Z,3.70
2017-11-17T16:13:40.754Z,3.70
2017-11-17T16:16:08.891Z,3.70
2017-11-17T16:18:37.626Z,3.70
2017-11-17T16:21:05.402Z,3.70
2017-11-17T16:23:34.323Z,3.70
2017-11-17T16:26:02.303Z,3.70
2017-11-17T16:28:30.284Z,3.70
2017-11-17T16:30:58.253Z,3.70
2017-11-17T16:33:26.235Z,3.70
2017-11-17T16:35:55.637Z,3.70
2017-11-17T16:38:23.571Z,3.60
2017-11-17T16:40:51.630Z,3.60
2017-11-17T16:43:20.503Z,3.40
2017-11-17T16:45:48.748Z,3.40
2017-11-17T16:48:16.744Z,3.40
2017-11-17T16:50:44.693Z,3.30
2017-11-17T16:53:12.703Z,3.30
2017-11-17T16:55:40.603Z,3.30
2017-11-17T16:58:08.485Z,3.20
2017-11-17T17:00:37.417Z,3.20
2017-11-17T17:03:05.253Z,3.10
2017-11-17T17:05:32.876Z,3.20
2017-11-17T17:08:00.548Z,3.10
2017-11-17T17:10:28.389Z,3.10
2017-11-17T17:12:56.143Z,3.00
2017-11-17T17:15:24.560Z,2.90
2017-11-17T17:17:52.233Z,2.90
2017-11-17T17:20:19.930Z,2.90
2017-11-17T17:22:47.582Z,3.00
2017-11-17T17:25:15.201Z,3.00
2017-11-17T17:27:42.968Z,3.00
2017-11-17T17:30:11.389Z,3.20
2017-11-17T17:32:39.138Z,3.10
2017-11-17T17:35:06.699Z,3.10
2017-11-17T17:37:34.265Z,3.10
2017-11-17T17:40:01.895Z,3.10
2017-11-17T17:42:29.507Z,3.10
2017-11-17T17:44:57.117Z,3.00
2017-11-17T17:47:24.720Z,3.00
2017-11-17T17:49:52.323Z,2.90
2017-11-17T17:52:19.926Z,3.00
2017-11-17T17:54:47.513Z,3.00
2017-11-17T17:57:15.103Z,3.00
2017-11-17T17:59:42.685Z,3.00
2017-11-17T18:02:10.350Z,3.00
2017-11-17T18:04:38.050Z,3.00
2017-11-17T18:07:05.776Z,3.00
2017-11-17T18:09:33.436Z,3.10
2017-11-17T18:12:01.048Z,3.10
2017-11-17T18:14:28.621Z,3.10
2017-11-17T18:16:56.269Z,3.10
2017-11-17T18:19:23.889Z,3.10
2017-11-17T18:21:51.488Z,3.10
2017-11-17T18:24:19.099Z,3.10
2017-11-17T18:26:47.483Z,3.10
2017-11-17T18:29:15.798Z,3.10
2017-11-17T18:31:43.706Z,3.10
2017-11-17T18:34:11.551Z,3.10
2017-11-17T18:36:39.203Z,3.20
2017-11-17T18:39:07.954Z,3.20
2017-11-17T18:41:35.858Z,3.20
2017-11-17T18:44:03.723Z,3.20
2017-11-17T18:46:31.367Z,3.20
2017-11-17T18:48:59.037Z,3.10
2017-11-17T18:51:26.744Z,3.10
2017-11-17T18:53:54.483Z,3.00
2017-11-17T18:56:22.140Z,3.00
2017-11-17T18:58:49.689Z,2.90
2017-11-17T19:01:17.417Z,3.00
2017-11-17T19:03:45.097Z,3.00
2017-11-17T19:06:12.870Z,3.10
2017-11-17T19:08:40.836Z,3.10
2017-11-17T19:11:08.453Z,3.10
2017-11-17T19:13:36.157Z,3.10
2017-11-17T19:16:03.919Z,3.10
2017-11-17T19:18:31.571Z,3.10
2017-11-17T19:20:59.885Z,3.10
2017-11-17T19:23:27.571Z,3.00
2017-11-17T19:25:55.213Z,3.00
2017-11-17T19:28:22.826Z,3.00
2017-11-17T19:30:51.275Z,3.10
2017-11-17T19:33:18.923Z,3.10
2017-11-17T19:35:46.671Z,3.00
2017-11-17T19:38:14.363Z,3.10
2017-11-17T19:40:41.975Z,3.20
2017-11-17T19:43:09.584Z,3.30
2017-11-17T19:45:38.131Z,3.30
2017-11-17T19:48:05.921Z,3.20
2017-11-17T19:50:33.543Z,3.30
2017-11-17T19:53:01.157Z,3.30
2017-11-17T19:55:29.700Z,3.30
2017-11-17T19:57:57.284Z,3.20
2017-11-17T20:00:24.887Z,3.20
2017-11-17T20:02:52.439Z,3.20
2017-11-17T20:05:20.099Z,3.20
2017-11-17T20:07:47.698Z,3.20
2017-11-17T20:10:15.381Z,3.20
2017-11-17T20:12:42.997Z,3.20
2017-11-17T20:15:11.618Z,3.20
2017-11-17T20:17:39.318Z,3.30
2017-11-17T20:20:07.057Z,3.30
2017-11-17T20:22:34.658Z,3.30
2017-11-17T20:25:02.314Z,3.40
2017-11-17T20:27:30.500Z,3.30
2017-11-17T20:29:58.058Z,3.20
2017-11-17T20:32:25.643Z,3.20
2017-11-17T20:34:53.263Z,3.30
2017-11-17T20:37:20.881Z,3.20
2017-11-17T20:39:48.483Z,3.30
2017-11-17T20:42:17.049Z,3.20
2017-11-17T20:44:44.645Z,3.20
2017-11-17T20:47:12.239Z,3.30
2017-11-17T20:49:39.834Z,3.30
2017-11-17T20:52:08.211Z,3.30
2017-11-17T20:54:35.785Z,3.20
2017-11-17T20:57:03.346Z,3.20
2017-11-17T20:59:30.972Z,3.20
2017-11-17T21:01:58.540Z,3.10
2017-11-17T21:04:26.178Z,3.10
2017-11-17T21:06:53.735Z,3.00
2017-11-17T21:09:21.319Z,3.00
2017-11-17T21:11:48.967Z,3.00
2017-11-17T21:14:16.546Z,3.10
2017-11-17T21:16:44.113Z,3.00
2017-11-17T21:19:11.713Z,3.10
2017-11-17T21:21:39.308Z,3.10
2017-11-17T21:24:07.670Z,3.30
2017-11-17T21:26:35.291Z,3.30
2017-11-17T21:29:02.892Z,3.30
2017-11-17T21:31:30.512Z,3.30
2017-11-17T21:33:58.161Z,3.20
2017-11-17T21:36:26.541Z,3.40
2017-11-17T21:38:54.925Z,3.40
2017-11-17T21:41:23.265Z,3.30
2017-11-17T21:43:51.651Z,3.30
2017-11-17T21:46:19.232Z,3.30
2017-11-17T21:48:46.833Z,3.40
2017-11-17T21:51:15.196Z,3.30
2017-11-17T21:53:42.795Z,3.30
2017-11-17T21:56:10.373Z,3.30
2017-11-17T21:58:37.964Z,3.30
2017-11-17T22:01:05.548Z,3.30
2017-11-17T22:03:33.136Z,3.30
2017-11-17T22:06:01.781Z,3.30
2017-11-17T22:08:29.355Z,3.30
2017-11-17T22:10:56.920Z,3.30
2017-11-17T22:13:24.515Z,3.30
2017-11-17T22:15:53.265Z,3.30
2017-11-17T22:18:20.832Z,3.30
2017-11-17T22:20:48.435Z,3.30
2017-11-17T22:23:17.083Z,3.30
2017-11-17T22:25:44.712Z,3.20
2017-11-17T22:28:12.287Z,3.20
2017-11-17T22:30:40.723Z,3.20
2017-11-17T22:33:08.323Z,3.20
2017-11-17T22:35:36.654Z,3.20
2017-11-17T22:38:04.256Z,3.20
2017-11-17T22:40:31.986Z,3.30
2017-11-17T22:42:59.548Z,3.30
2017-11-17T22:45:28.134Z,3.20
2017-11-17T22:47:56.142Z,3.30
2017-11-17T22:50:23.746Z,3.30
2017-11-17T22:52:52.114Z,3.20
2017-11-17T22:55:20.778Z,3.10
2017-11-17T22:57:48.879Z,3.20
2017-11-17T23:00:17.407Z,3.20
2017-11-17T23:02:46.367Z,3.20
2017-11-17T23:05:13.969Z,3.30
2017-11-17T23:07:42.559Z,3.20
2017-11-17T23:10:10.127Z,3.20
2017-11-17T23:12:37.739Z,3.20
2017-11-17T23:15:06.125Z,3.10
2017-11-17T23:17:33.710Z,3.10
2017-11-17T23:20:01.352Z,3.20
2017-11-17T23:22:29.016Z,3.30
2017-11-17T23:24:57.025Z,3.40
2017-11-17T23:27:25.560Z,3.20
2017-11-17T23:29:53.503Z,3.20
2017-11-17T23:32:21.391Z,3.20
2017-11-17T23:34:49.355Z,3.10
2017-11-17T23:37:18.144Z,3.20
2017-11-17T23:39:47.689Z,3.10
2017-11-17T23:42:15.303Z,3.10
2017-11-17T23:44:45.369Z,3.00
2017-11-17T23:47:13.399Z,3.00
2017-11-17T23:49:41.024Z,3.00
2017-11-17T23:52:09.360Z,3.00
2017-11-17T23:54:38.308Z,3.00
2017-11-17T23:57:06.204Z,3.00
2017-11-17T23:59:33.804Z,3.00
